sensor_id;sensor_type;location;lat;lon;timestamp;temperature;humidity
71942;DHT22;59997;53.300;-6.260;2022-12-29T00:02:10;6.23;86.03
71942;DHT22;59997;53.300;-6.260;2022-12-29T00:04:35;6.19;86.07
71942;DHT22;59997;53.300;-6.260;2022-12-29T00:07:01;6.19;86.22
71942;DHT22;59997;53.300;-6.260;2022-12-29T00:09:30;6.22;86.19
71942;DHT22;59997;53.300;-6.260;2022-12-29T00:11:56;6.22;86.15
71942;DHT22;59997;53.300;-6.260;2022-12-29T00:14:21;6.16;86.35
71942;DHT22;59997;53.300;-6.260;2022-12-29T00:17:05;6.16;86.41
71942;DHT22;59997;53.300;-6.260;2022-12-29T00:19:31;6.20;86.38
71942;DHT22;59997;53.300;-6.260;2022-12-29T00:22:15;6.19;86.43
71942;DHT22;59997;53.300;-6.260;2022-12-29T00:25:00;6.26;86.40
71942;DHT22;59997;53.300;-6.260;2022-12-29T00:27:44;6.29;86.20
71942;DHT22;59997;53.300;-6.260;2022-12-29T00:30:29;6.20;86.45
71942;DHT22;59997;53.300;-6.260;2022-12-29T00:33:14;6.22;86.50
71942;DHT22;59997;53.300;-6.260;2022-12-29T00:36:03;6.23;86.54
71942;DHT22;59997;53.300;-6.260;2022-12-29T00:38:31;6.25;86.30
71942;DHT22;59997;53.300;-6.260;2022-12-29T00:41:16;6.26;86.31
71942;DHT22;59997;53.300;-6.260;2022-12-29T00:44:01;6.37;85.97
71942;DHT22;59997;53.300;-6.260;2022-12-29T00:46:38;6.34;85.82
71942;DHT22;59997;53.300;-6.260;2022-12-29T00:49:05;6.28;85.96
71942;DHT22;59997;53.300;-6.260;2022-12-29T00:51:49;6.32;85.84
71942;DHT22;59997;53.300;-6.260;2022-12-29T00:54:15;6.29;85.73
71942;DHT22;59997;53.300;-6.260;2022-12-29T00:56:41;6.33;85.57
71942;DHT22;59997;53.300;-6.260;2022-12-29T00:59:09;6.28;85.67
71942;DHT22;59997;53.300;-6.260;2022-12-29T01:01:34;6.33;85.53
71942;DHT22;59997;53.300;-6.260;2022-12-29T01:04:00;6.29;85.49
71942;DHT22;59997;53.300;-6.260;2022-12-29T01:06:26;6.34;85.27
71942;DHT22;59997;53.300;-6.260;2022-12-29T01:08:52;6.34;85.24
71942;DHT22;59997;53.300;-6.260;2022-12-29T01:11:36;6.32;85.19
71942;DHT22;59997;53.300;-6.260;2022-12-29T01:14:01;6.39;84.91
71942;DHT22;59997;53.300;-6.260;2022-12-29T01:16:27;6.29;85.03
71942;DHT22;59997;53.300;-6.260;2022-12-29T01:18:52;6.32;84.89
71942;DHT22;59997;53.300;-6.260;2022-12-29T01:21:18;6.19;85.06
71942;DHT22;59997;53.300;-6.260;2022-12-29T01:23:44;6.18;85.17
71942;DHT22;59997;53.300;-6.260;2022-12-29T01:26:11;6.08;85.29
71942;DHT22;59997;53.300;-6.260;2022-12-29T01:28:36;6.04;85.49
71942;DHT22;59997;53.300;-6.260;2022-12-29T01:31:05;6.18;85.24
71942;DHT22;59997;53.300;-6.260;2022-12-29T01:33:31;6.36;84.65
71942;DHT22;59997;53.300;-6.260;2022-12-29T01:36:00;6.29;84.79
71942;DHT22;59997;53.300;-6.260;2022-12-29T01:38:26;6.26;84.85
71942;DHT22;59997;53.300;-6.260;2022-12-29T01:40:51;6.25;84.95
71942;DHT22;59997;53.300;-6.260;2022-12-29T01:43:17;6.18;85.00
71942;DHT22;59997;53.300;-6.260;2022-12-29T01:45:50;6.16;85.17
71942;DHT22;59997;53.300;-6.260;2022-12-29T01:48:17;6.22;84.99
71942;DHT22;59997;53.300;-6.260;2022-12-29T01:50:50;6.29;84.64
71942;DHT22;59997;53.300;-6.260;2022-12-29T01:53:25;6.29;84.58
71942;DHT22;59997;53.300;-6.260;2022-12-29T01:55:57;6.26;84.49
71942;DHT22;59997;53.300;-6.260;2022-12-29T01:58:28;6.22;84.59
71942;DHT22;59997;53.300;-6.260;2022-12-29T02:00:54;6.15;84.79
71942;DHT22;59997;53.300;-6.260;2022-12-29T02:03:21;6.09;84.95
71942;DHT22;59997;53.300;-6.260;2022-12-29T02:05:56;6.16;84.78
71942;DHT22;59997;53.300;-6.260;2022-12-29T02:08:26;6.13;84.78
71942;DHT22;59997;53.300;-6.260;2022-12-29T02:10:53;6.20;84.73
71942;DHT22;59997;53.300;-6.260;2022-12-29T02:13:19;6.29;84.41
71942;DHT22;59997;53.300;-6.260;2022-12-29T02:15:51;6.25;84.47
71942;DHT22;59997;53.300;-6.260;2022-12-29T02:18:42;6.26;84.43
71942;DHT22;59997;53.300;-6.260;2022-12-29T02:26:27;6.41;83.96
71942;DHT22;59997;53.300;-6.260;2022-12-29T02:35:04;6.37;83.96
71942;DHT22;59997;53.300;-6.260;2022-12-29T02:46:17;6.55;83.02
71942;DHT22;59997;53.300;-6.260;2022-12-29T02:49:02;6.53;83.04
71942;DHT22;59997;53.300;-6.260;2022-12-29T02:54:03;6.44;83.29
71942;DHT22;59997;53.300;-6.260;2022-12-29T02:56:47;6.41;83.31
71942;DHT22;59997;53.300;-6.260;2022-12-29T02:59:12;6.33;83.60
71942;DHT22;59997;53.300;-6.260;2022-12-29T03:02:34;6.37;83.48
71942;DHT22;59997;53.300;-6.260;2022-12-29T03:07:23;6.23;83.80
71942;DHT22;59997;53.300;-6.260;2022-12-29T03:15:21;6.16;84.03
71942;DHT22;59997;53.300;-6.260;2022-12-29T03:18:13;6.12;84.12
71942;DHT22;59997;53.300;-6.260;2022-12-29T03:20:53;6.20;84.07
71942;DHT22;59997;53.300;-6.260;2022-12-29T03:23:20;6.18;83.90
71942;DHT22;59997;53.300;-6.260;2022-12-29T03:25:51;6.22;83.96
71942;DHT22;59997;53.300;-6.260;2022-12-29T03:28:23;6.50;83.23
71942;DHT22;59997;53.300;-6.260;2022-12-29T03:30:49;6.55;82.84
71942;DHT22;59997;53.300;-6.260;2022-12-29T03:33:18;6.46;83.03
71942;DHT22;59997;53.300;-6.260;2022-12-29T03:35:45;6.46;83.11
71942;DHT22;59997;53.300;-6.260;2022-12-29T03:41:01;6.41;83.38
71942;DHT22;59997;53.300;-6.260;2022-12-29T03:43:29;6.33;83.70
71942;DHT22;59997;53.300;-6.260;2022-12-29T03:45:54;6.43;83.61
71942;DHT22;59997;53.300;-6.260;2022-12-29T03:48:20;6.43;83.66
71942;DHT22;59997;53.300;-6.260;2022-12-29T03:50:46;6.46;83.72
71942;DHT22;59997;53.300;-6.260;2022-12-29T03:53:11;6.50;83.56
71942;DHT22;59997;53.300;-6.260;2022-12-29T03:55:37;6.44;83.85
71942;DHT22;59997;53.300;-6.260;2022-12-29T03:58:02;6.34;84.05
71942;DHT22;59997;53.300;-6.260;2022-12-29T04:00:28;6.40;83.92
71942;DHT22;59997;53.300;-6.260;2022-12-29T04:02:53;6.39;84.00
71942;DHT22;59997;53.300;-6.260;2022-12-29T04:05:19;6.37;84.06
71942;DHT22;59997;53.300;-6.260;2022-12-29T04:07:44;6.46;83.65
71942;DHT22;59997;53.300;-6.260;2022-12-29T04:10:10;6.36;83.74
71942;DHT22;59997;53.300;-6.260;2022-12-29T04:12:35;6.32;83.77
71942;DHT22;59997;53.300;-6.260;2022-12-29T04:15:01;6.34;83.50
71942;DHT22;59997;53.300;-6.260;2022-12-29T04:17:26;6.30;83.48
71942;DHT22;59997;53.300;-6.260;2022-12-29T04:19:51;6.34;83.49
71942;DHT22;59997;53.300;-6.260;2022-12-29T04:22:37;6.43;83.13
71942;DHT22;59997;53.300;-6.260;2022-12-29T04:25:02;6.39;83.28
71942;DHT22;59997;53.300;-6.260;2022-12-29T04:27:28;6.36;83.25
71942;DHT22;59997;53.300;-6.260;2022-12-29T04:29:53;6.33;83.36
71942;DHT22;59997;53.300;-6.260;2022-12-29T04:32:19;6.41;83.05
71942;DHT22;59997;53.300;-6.260;2022-12-29T04:34:44;6.40;82.85
71942;DHT22;59997;53.300;-6.260;2022-12-29T04:37:09;6.36;82.78
71942;DHT22;59997;53.300;-6.260;2022-12-29T04:39:35;6.23;83.21
71942;DHT22;59997;53.300;-6.260;2022-12-29T04:42:00;6.23;83.18
71942;DHT22;59997;53.300;-6.260;2022-12-29T04:44:26;6.11;83.41
71942;DHT22;59997;53.300;-6.260;2022-12-29T04:46:51;6.13;83.24
71942;DHT22;59997;53.300;-6.260;2022-12-29T04:49:17;6.20;82.72
71942;DHT22;59997;53.300;-6.260;2022-12-29T04:51:42;6.09;82.96
71942;DHT22;59997;53.300;-6.260;2022-12-29T04:54:07;6.13;82.83
71942;DHT22;59997;53.300;-6.260;2022-12-29T04:56:33;6.08;82.59
71942;DHT22;59997;53.300;-6.260;2022-12-29T04:58:58;6.15;82.29
71942;DHT22;59997;53.300;-6.260;2022-12-29T05:01:24;6.13;82.56
71942;DHT22;59997;53.300;-6.260;2022-12-29T05:03:50;6.06;82.80
71942;DHT22;59997;53.300;-6.260;2022-12-29T05:06:16;6.01;82.86
71942;DHT22;59997;53.300;-6.260;2022-12-29T05:08:42;6.02;82.83
71942;DHT22;59997;53.300;-6.260;2022-12-29T05:11:07;6.02;82.76
71942;DHT22;59997;53.300;-6.260;2022-12-29T05:13:33;6.08;82.69
71942;DHT22;59997;53.300;-6.260;2022-12-29T05:15:58;5.97;82.64
71942;DHT22;59997;53.300;-6.260;2022-12-29T05:18:24;5.91;82.57
71942;DHT22;59997;53.300;-6.260;2022-12-29T05:20:49;5.83;82.41
71942;DHT22;59997;53.300;-6.260;2022-12-29T05:23:15;5.74;82.56
71942;DHT22;59997;53.300;-6.260;2022-12-29T05:25:42;5.77;82.26
71942;DHT22;59997;53.300;-6.260;2022-12-29T05:28:08;5.78;82.07
71942;DHT22;59997;53.300;-6.260;2022-12-29T05:30:33;5.87;81.75
71942;DHT22;59997;53.300;-6.260;2022-12-29T05:32:59;5.79;81.45
71942;DHT22;59997;53.300;-6.260;2022-12-29T05:35:24;5.70;81.80
71942;DHT22;59997;53.300;-6.260;2022-12-29T05:37:50;5.71;81.43
71942;DHT22;59997;53.300;-6.260;2022-12-29T05:40:15;5.67;81.19
71942;DHT22;59997;53.300;-6.260;2022-12-29T05:42:41;5.68;80.82
71942;DHT22;59997;53.300;-6.260;2022-12-29T05:45:07;5.68;80.61
71942;DHT22;59997;53.300;-6.260;2022-12-29T05:47:33;5.61;80.63
71942;DHT22;59997;53.300;-6.260;2022-12-29T05:49:58;5.68;80.25
71942;DHT22;59997;53.300;-6.260;2022-12-29T05:52:24;5.77;79.87
71942;DHT22;59997;53.300;-6.260;2022-12-29T05:54:49;5.74;80.10
71942;DHT22;59997;53.300;-6.260;2022-12-29T05:57:14;5.93;79.93
71942;DHT22;59997;53.300;-6.260;2022-12-29T05:59:40;5.94;79.97
71942;DHT22;59997;53.300;-6.260;2022-12-29T06:02:05;5.83;80.25
71942;DHT22;59997;53.300;-6.260;2022-12-29T06:04:31;5.74;80.58
71942;DHT22;59997;53.300;-6.260;2022-12-29T06:06:56;5.81;80.31
71942;DHT22;59997;53.300;-6.260;2022-12-29T06:09:22;5.84;80.47
71942;DHT22;59997;53.300;-6.260;2022-12-29T06:11:47;5.87;80.63
71942;DHT22;59997;53.300;-6.260;2022-12-29T06:14:12;5.87;80.52
71942;DHT22;59997;53.300;-6.260;2022-12-29T06:16:38;5.83;80.62
71942;DHT22;59997;53.300;-6.260;2022-12-29T06:19:03;5.81;80.72
71942;DHT22;59997;53.300;-6.260;2022-12-29T06:21:29;5.78;80.69
71942;DHT22;59997;53.300;-6.260;2022-12-29T06:23:54;5.73;80.98
71942;DHT22;59997;53.300;-6.260;2022-12-29T06:26:20;5.74;80.97
71942;DHT22;59997;53.300;-6.260;2022-12-29T06:28:45;5.73;80.87
71942;DHT22;59997;53.300;-6.260;2022-12-29T06:31:11;5.70;80.98
71942;DHT22;59997;53.300;-6.260;2022-12-29T06:33:37;5.64;81.19
71942;DHT22;59997;53.300;-6.260;2022-12-29T06:36:03;5.66;81.30
71942;DHT22;59997;53.300;-6.260;2022-12-29T06:38:28;5.60;81.33
71942;DHT22;59997;53.300;-6.260;2022-12-29T06:40:54;5.63;81.39
71942;DHT22;59997;53.300;-6.260;2022-12-29T06:43:19;5.67;81.13
71942;DHT22;59997;53.300;-6.260;2022-12-29T06:45:45;5.70;81.19
71942;DHT22;59997;53.300;-6.260;2022-12-29T06:48:10;5.70;81.26
71942;DHT22;59997;53.300;-6.260;2022-12-29T06:50:36;5.67;81.20
71942;DHT22;59997;53.300;-6.260;2022-12-29T06:53:01;5.64;81.34
71942;DHT22;59997;53.300;-6.260;2022-12-29T06:55:27;5.60;81.50
71942;DHT22;59997;53.300;-6.260;2022-12-29T06:57:56;5.59;81.54
71942;DHT22;59997;53.300;-6.260;2022-12-29T07:00:23;5.60;81.61
71942;DHT22;59997;53.300;-6.260;2022-12-29T07:02:49;5.53;81.66
71942;DHT22;59997;53.300;-6.260;2022-12-29T07:05:14;5.52;81.74
71942;DHT22;59997;53.300;-6.260;2022-12-29T07:07:40;5.59;81.53
71942;DHT22;59997;53.300;-6.260;2022-12-29T07:10:06;5.60;81.37
71942;DHT22;59997;53.300;-6.260;2022-12-29T07:12:31;5.56;81.36
71942;DHT22;59997;53.300;-6.260;2022-12-29T07:14:56;5.56;81.32
71942;DHT22;59997;53.300;-6.260;2022-12-29T07:17:22;5.54;81.14
71942;DHT22;59997;53.300;-6.260;2022-12-29T07:19:47;5.53;80.91
71942;DHT22;59997;53.300;-6.260;2022-12-29T07:22:13;5.63;80.18
71942;DHT22;59997;53.300;-6.260;2022-12-29T07:24:38;5.52;80.49
71942;DHT22;59997;53.300;-6.260;2022-12-29T07:27:04;5.50;81.08
71942;DHT22;59997;53.300;-6.260;2022-12-29T07:29:30;5.42;81.37
71942;DHT22;59997;53.300;-6.260;2022-12-29T07:31:55;5.42;81.72
71942;DHT22;59997;53.300;-6.260;2022-12-29T07:34:20;5.38;82.33
71942;DHT22;59997;53.300;-6.260;2022-12-29T07:36:46;5.31;82.87
71942;DHT22;59997;53.300;-6.260;2022-12-29T07:39:11;5.08;83.67
71942;DHT22;59997;53.300;-6.260;2022-12-29T07:41:37;5.05;83.89
71942;DHT22;59997;53.300;-6.260;2022-12-29T07:44:02;5.09;83.48
71942;DHT22;59997;53.300;-6.260;2022-12-29T07:46:28;5.12;83.37
71942;DHT22;59997;53.300;-6.260;2022-12-29T07:48:53;5.09;83.32
71942;DHT22;59997;53.300;-6.260;2022-12-29T07:51:19;5.24;82.92
71942;DHT22;59997;53.300;-6.260;2022-12-29T07:53:44;5.32;82.37
71942;DHT22;59997;53.300;-6.260;2022-12-29T07:56:10;5.35;81.97
71942;DHT22;59997;53.300;-6.260;2022-12-29T07:58:35;5.39;81.85
71942;DHT22;59997;53.300;-6.260;2022-12-29T08:01:01;5.40;81.73
71942;DHT22;59997;53.300;-6.260;2022-12-29T08:03:26;5.35;81.76
71942;DHT22;59997;53.300;-6.260;2022-12-29T08:05:52;5.38;81.62
71942;DHT22;59997;53.300;-6.260;2022-12-29T08:08:17;5.35;81.65
71942;DHT22;59997;53.300;-6.260;2022-12-29T08:10:43;5.38;81.57
71942;DHT22;59997;53.300;-6.260;2022-12-29T08:13:08;5.28;81.78
71942;DHT22;59997;53.300;-6.260;2022-12-29T08:15:34;5.26;81.98
71942;DHT22;59997;53.300;-6.260;2022-12-29T08:18:00;5.25;81.82
71942;DHT22;59997;53.300;-6.260;2022-12-29T08:20:26;5.28;81.79
71942;DHT22;59997;53.300;-6.260;2022-12-29T08:22:51;5.25;81.83
71942;DHT22;59997;53.300;-6.260;2022-12-29T08:25:17;5.22;82.08
71942;DHT22;59997;53.300;-6.260;2022-12-29T08:27:44;5.19;82.15
71942;DHT22;59997;53.300;-6.260;2022-12-29T08:30:10;5.24;81.86
71942;DHT22;59997;53.300;-6.260;2022-12-29T08:32:36;5.22;82.04
71942;DHT22;59997;53.300;-6.260;2022-12-29T08:35:01;5.25;81.99
71942;DHT22;59997;53.300;-6.260;2022-12-29T08:37:27;5.18;82.13
71942;DHT22;59997;53.300;-6.260;2022-12-29T08:39:52;5.16;82.15
71942;DHT22;59997;53.300;-6.260;2022-12-29T08:42:18;5.11;82.26
71942;DHT22;59997;53.300;-6.260;2022-12-29T08:44:43;5.18;82.10
71942;DHT22;59997;53.300;-6.260;2022-12-29T08:47:10;5.26;81.90
71942;DHT22;59997;53.300;-6.260;2022-12-29T08:49:36;5.21;81.76
71942;DHT22;59997;53.300;-6.260;2022-12-29T08:52:02;5.22;81.68
71942;DHT22;59997;53.300;-6.260;2022-12-29T08:54:27;5.22;81.41
71942;DHT22;59997;53.300;-6.260;2022-12-29T08:56:52;5.21;81.31
71942;DHT22;59997;53.300;-6.260;2022-12-29T08:59:19;5.18;81.61
71942;DHT22;59997;53.300;-6.260;2022-12-29T09:01:44;5.25;81.51
71942;DHT22;59997;53.300;-6.260;2022-12-29T09:04:09;5.26;81.31
71942;DHT22;59997;53.300;-6.260;2022-12-29T09:06:35;5.21;81.40
71942;DHT22;59997;53.300;-6.260;2022-12-29T09:09:01;5.32;81.20
71942;DHT22;59997;53.300;-6.260;2022-12-29T09:11:26;5.26;81.47
71942;DHT22;59997;53.300;-6.260;2022-12-29T09:13:52;5.24;81.79
71942;DHT22;59997;53.300;-6.260;2022-12-29T09:16:20;5.25;81.75
71942;DHT22;59997;53.300;-6.260;2022-12-29T09:18:46;5.26;81.68
71942;DHT22;59997;53.300;-6.260;2022-12-29T09:21:12;5.25;81.74
71942;DHT22;59997;53.300;-6.260;2022-12-29T09:23:38;5.31;81.55
71942;DHT22;59997;53.300;-6.260;2022-12-29T09:26:04;5.25;81.58
71942;DHT22;59997;53.300;-6.260;2022-12-29T09:28:30;5.28;81.39
71942;DHT22;59997;53.300;-6.260;2022-12-29T09:30:57;5.29;81.56
71942;DHT22;59997;53.300;-6.260;2022-12-29T09:33:23;5.28;81.66
71942;DHT22;59997;53.300;-6.260;2022-12-29T09:35:56;5.22;81.79
71942;DHT22;59997;53.300;-6.260;2022-12-29T09:38:23;5.26;81.72
71942;DHT22;59997;53.300;-6.260;2022-12-29T09:40:54;5.25;81.74
71942;DHT22;59997;53.300;-6.260;2022-12-29T09:43:30;5.26;81.78
71942;DHT22;59997;53.300;-6.260;2022-12-29T09:46:24;5.22;81.89
71942;DHT22;59997;53.300;-6.260;2022-12-29T09:51:31;5.39;81.86
71942;DHT22;59997;53.300;-6.260;2022-12-29T09:54:09;5.52;81.17
71942;DHT22;59997;53.300;-6.260;2022-12-29T09:56:40;5.38;81.52
71942;DHT22;59997;53.300;-6.260;2022-12-29T09:59:12;5.56;81.02
71942;DHT22;59997;53.300;-6.260;2022-12-29T10:01:52;5.63;80.78
71942;DHT22;59997;53.300;-6.260;2022-12-29T10:04:19;5.63;80.89
71942;DHT22;59997;53.300;-6.260;2022-12-29T10:06:53;5.78;80.64
71942;DHT22;59997;53.300;-6.260;2022-12-29T10:12:49;6.30;78.95
71942;DHT22;59997;53.300;-6.260;2022-12-29T10:18:32;6.04;79.93
71942;DHT22;59997;53.300;-6.260;2022-12-29T10:23:51;6.91;77.73
71942;DHT22;59997;53.300;-6.260;2022-12-29T10:26:19;7.33;76.84
71942;DHT22;59997;53.300;-6.260;2022-12-29T10:31:33;7.19;78.19
71942;DHT22;59997;53.300;-6.260;2022-12-29T10:34:05;7.06;78.43
71942;DHT22;59997;53.300;-6.260;2022-12-29T10:36:37;6.68;79.07
71942;DHT22;59997;53.300;-6.260;2022-12-29T10:39:13;6.67;79.24
71942;DHT22;59997;53.300;-6.260;2022-12-29T10:41:51;6.91;78.49
71942;DHT22;59997;53.300;-6.260;2022-12-29T10:44:19;6.39;80.13
71942;DHT22;59997;53.300;-6.260;2022-12-29T10:46:55;6.04;81.60
71942;DHT22;59997;53.300;-6.260;2022-12-29T10:49:21;5.85;82.02
71942;DHT22;59997;53.300;-6.260;2022-12-29T10:51:48;5.87;81.84
71942;DHT22;59997;53.300;-6.260;2022-12-29T10:54:26;5.78;83.44
71942;DHT22;59997;53.300;-6.260;2022-12-29T10:57:00;5.81;84.56
71942;DHT22;59997;53.300;-6.260;2022-12-29T10:59:33;5.61;84.63
71942;DHT22;59997;53.300;-6.260;2022-12-29T11:07:27;5.88;84.66
71942;DHT22;59997;53.300;-6.260;2022-12-29T11:09:55;5.83;84.72
71942;DHT22;59997;53.300;-6.260;2022-12-29T11:14:46;5.59;84.83
71942;DHT22;59997;53.300;-6.260;2022-12-29T11:17:16;5.97;84.33
71942;DHT22;59997;53.300;-6.260;2022-12-29T11:19:43;5.93;83.64
71942;DHT22;59997;53.300;-6.260;2022-12-29T11:22:25;5.95;83.97
71942;DHT22;59997;53.300;-6.260;2022-12-29T11:24:53;6.28;83.02
71942;DHT22;59997;53.300;-6.260;2022-12-29T11:27:26;6.39;82.16
71942;DHT22;59997;53.300;-6.260;2022-12-29T11:29:53;6.39;82.11
71942;DHT22;59997;53.300;-6.260;2022-12-29T11:32:22;5.79;82.55
71942;DHT22;59997;53.300;-6.260;2022-12-29T11:34:48;5.35;83.64
71942;DHT22;59997;53.300;-6.260;2022-12-29T11:40:01;6.06;81.19
71942;DHT22;59997;53.300;-6.260;2022-12-29T11:42:37;6.44;80.40
71942;DHT22;59997;53.300;-6.260;2022-12-29T11:45:06;6.57;79.60
71942;DHT22;59997;53.300;-6.260;2022-12-29T11:47:32;6.87;79.43
71942;DHT22;59997;53.300;-6.260;2022-12-29T11:50:04;6.95;79.19
71942;DHT22;59997;53.300;-6.260;2022-12-29T11:52:35;7.02;78.85
71942;DHT22;59997;53.300;-6.260;2022-12-29T11:55:13;7.02;78.81
71942;DHT22;59997;53.300;-6.260;2022-12-29T11:57:42;7.02;78.64
71942;DHT22;59997;53.300;-6.260;2022-12-29T12:00:20;7.22;78.54
71942;DHT22;59997;53.300;-6.260;2022-12-29T12:10:33;7.26;78.70
71942;DHT22;59997;53.300;-6.260;2022-12-29T12:13:23;7.38;78.83
71942;DHT22;59997;53.300;-6.260;2022-12-29T12:16:18;7.41;78.93
71942;DHT22;59997;53.300;-6.260;2022-12-29T12:18:52;7.35;78.92
71942;DHT22;59997;53.300;-6.260;2022-12-29T12:21:24;7.31;79.02
71942;DHT22;59997;53.300;-6.260;2022-12-29T12:24:03;7.35;78.48
71942;DHT22;59997;53.300;-6.260;2022-12-29T12:26:34;7.40;78.54
71942;DHT22;59997;53.300;-6.260;2022-12-29T12:31:45;7.50;77.66
71942;DHT22;59997;53.300;-6.260;2022-12-29T12:34:27;7.58;78.14
71942;DHT22;59997;53.300;-6.260;2022-12-29T12:40:28;7.44;78.01
71942;DHT22;59997;53.300;-6.260;2022-12-29T13:00:07;7.09;78.73
71942;DHT22;59997;53.300;-6.260;2022-12-29T13:11:21;6.40;80.80
71942;DHT22;59997;53.300;-6.260;2022-12-29T13:19:29;6.34;81.14
71942;DHT22;59997;53.300;-6.260;2022-12-29T13:22:19;6.33;81.21
71942;DHT22;59997;53.300;-6.260;2022-12-29T13:30:35;6.20;81.54
71942;DHT22;59997;53.300;-6.260;2022-12-29T13:38:40;6.29;80.32
71942;DHT22;59997;53.300;-6.260;2022-12-29T13:41:12;6.41;79.82
71942;DHT22;59997;53.300;-6.260;2022-12-29T13:43:40;6.37;79.47
71942;DHT22;59997;53.300;-6.260;2022-12-29T13:46:14;6.25;78.66
71942;DHT22;59997;53.300;-6.260;2022-12-29T13:48:58;6.01;79.43
71942;DHT22;59997;53.300;-6.260;2022-12-29T13:51:25;5.91;79.48
71942;DHT22;59997;53.300;-6.260;2022-12-29T13:56:40;5.79;78.71
71942;DHT22;59997;53.300;-6.260;2022-12-29T13:59:41;5.81;78.71
71942;DHT22;59997;53.300;-6.260;2022-12-29T14:05:02;5.88;78.41
71942;DHT22;59997;53.300;-6.260;2022-12-29T14:07:36;5.88;78.58
71942;DHT22;59997;53.300;-6.260;2022-12-29T14:10:02;5.84;78.49
71942;DHT22;59997;53.300;-6.260;2022-12-29T14:17:35;5.81;78.83
71942;DHT22;59997;53.300;-6.260;2022-12-29T14:20:02;5.77;78.68
71942;DHT22;59997;53.300;-6.260;2022-12-29T14:22:29;5.74;78.68
71942;DHT22;59997;53.300;-6.260;2022-12-29T14:24:55;5.77;79.02
71942;DHT22;59997;53.300;-6.260;2022-12-29T14:29:50;5.67;79.31
71942;DHT22;59997;53.300;-6.260;2022-12-29T14:35:00;5.52;79.88
71942;DHT22;59997;53.300;-6.260;2022-12-29T14:37:45;5.49;79.61
71942;DHT22;59997;53.300;-6.260;2022-12-29T14:40:25;5.49;79.63
71942;DHT22;59997;53.300;-6.260;2022-12-29T14:42:55;5.47;79.66
71942;DHT22;59997;53.300;-6.260;2022-12-29T14:47:48;5.38;80.12
71942;DHT22;59997;53.300;-6.260;2022-12-29T14:50:23;5.38;80.30
71942;DHT22;59997;53.300;-6.260;2022-12-29T14:52:53;5.47;79.79
71942;DHT22;59997;53.300;-6.260;2022-12-29T14:58:27;5.44;79.85
71942;DHT22;59997;53.300;-6.260;2022-12-29T15:00:53;5.52;79.55
71942;DHT22;59997;53.300;-6.260;2022-12-29T15:06:04;5.54;79.24
71942;DHT22;59997;53.300;-6.260;2022-12-29T15:08:35;5.56;79.61
71942;DHT22;59997;53.300;-6.260;2022-12-29T15:11:21;5.47;80.02
71942;DHT22;59997;53.300;-6.260;2022-12-29T15:13:47;5.46;80.71
71942;DHT22;59997;53.300;-6.260;2022-12-29T15:16:26;5.39;80.79
71942;DHT22;59997;53.300;-6.260;2022-12-29T15:18:55;5.31;81.21
71942;DHT22;59997;53.300;-6.260;2022-12-29T15:21:25;5.35;81.29
71942;DHT22;59997;53.300;-6.260;2022-12-29T15:23:52;5.33;81.33
71942;DHT22;59997;53.300;-6.260;2022-12-29T15:26:17;5.40;81.09
71942;DHT22;59997;53.300;-6.260;2022-12-29T15:28:49;5.39;81.07
71942;DHT22;59997;53.300;-6.260;2022-12-29T15:31:24;5.33;81.43
71942;DHT22;59997;53.300;-6.260;2022-12-29T15:33:52;5.32;81.59
71942;DHT22;59997;53.300;-6.260;2022-12-29T15:36:28;5.08;82.43
71942;DHT22;59997;53.300;-6.260;2022-12-29T15:38:54;5.08;82.22
71942;DHT22;59997;53.300;-6.260;2022-12-29T15:41:36;5.19;81.94
71942;DHT22;59997;53.300;-6.260;2022-12-29T15:46:51;5.21;81.97
71942;DHT22;59997;53.300;-6.260;2022-12-29T15:49:17;5.00;82.35
71942;DHT22;59997;53.300;-6.260;2022-12-29T15:51:43;5.05;82.46
71942;DHT22;59997;53.300;-6.260;2022-12-29T15:54:20;5.07;82.47
71942;DHT22;59997;53.300;-6.260;2022-12-29T15:56:47;4.84;83.38
71942;DHT22;59997;53.300;-6.260;2022-12-29T16:01:49;4.84;83.45
71942;DHT22;59997;53.300;-6.260;2022-12-29T16:04:15;4.79;83.58
71942;DHT22;59997;53.300;-6.260;2022-12-29T16:06:54;4.81;83.64
71942;DHT22;59997;53.300;-6.260;2022-12-29T16:09:30;5.02;82.86
71942;DHT22;59997;53.300;-6.260;2022-12-29T16:12:02;5.07;82.72
71942;DHT22;59997;53.300;-6.260;2022-12-29T16:14:42;5.12;82.51
71942;DHT22;59997;53.300;-6.260;2022-12-29T16:17:13;5.05;82.69
71942;DHT22;59997;53.300;-6.260;2022-12-29T16:19:41;5.02;82.80
71942;DHT22;59997;53.300;-6.260;2022-12-29T16:22:17;5.02;82.93
71942;DHT22;59997;53.300;-6.260;2022-12-29T16:24:45;5.25;82.43
71942;DHT22;59997;53.300;-6.260;2022-12-29T16:30:04;5.26;82.58
71942;DHT22;59997;53.300;-6.260;2022-12-29T16:32:31;5.24;82.81
71942;DHT22;59997;53.300;-6.260;2022-12-29T16:38:15;5.21;83.50
71942;DHT22;59997;53.300;-6.260;2022-12-29T16:40:57;5.14;83.89
71942;DHT22;59997;53.300;-6.260;2022-12-29T16:51:01;5.25;83.71
71942;DHT22;59997;53.300;-6.260;2022-12-29T16:53:32;5.21;83.81
71942;DHT22;59997;53.300;-6.260;2022-12-29T16:56:08;5.16;83.77
71942;DHT22;59997;53.300;-6.260;2022-12-29T16:58:38;5.22;83.61
71942;DHT22;59997;53.300;-6.260;2022-12-29T17:01:04;5.24;83.46
71942;DHT22;59997;53.300;-6.260;2022-12-29T17:03:40;5.16;83.63
71942;DHT22;59997;53.300;-6.260;2022-12-29T17:06:14;5.19;83.49
71942;DHT22;59997;53.300;-6.260;2022-12-29T17:08:40;5.22;83.34
71942;DHT22;59997;53.300;-6.260;2022-12-29T17:11:34;5.21;83.26
71942;DHT22;59997;53.300;-6.260;2022-12-29T17:17:40;5.01;83.70
71942;DHT22;59997;53.300;-6.260;2022-12-29T17:20:22;5.07;83.50
71942;DHT22;59997;53.300;-6.260;2022-12-29T17:22:48;5.02;83.34
71942;DHT22;59997;53.300;-6.260;2022-12-29T17:25:19;5.11;83.18
71942;DHT22;59997;53.300;-6.260;2022-12-29T17:27:52;5.01;83.20
71942;DHT22;59997;53.300;-6.260;2022-12-29T17:30:22;5.04;83.17
71942;DHT22;59997;53.300;-6.260;2022-12-29T17:33:00;5.12;82.93
71942;DHT22;59997;53.300;-6.260;2022-12-29T17:35:26;5.09;82.98
71942;DHT22;59997;53.300;-6.260;2022-12-29T17:37:52;5.08;83.07
71942;DHT22;59997;53.300;-6.260;2022-12-29T17:40:20;5.01;83.13
71942;DHT22;59997;53.300;-6.260;2022-12-29T17:42:48;4.95;83.45
71942;DHT22;59997;53.300;-6.260;2022-12-29T17:45:19;5.01;83.12
71942;DHT22;59997;53.300;-6.260;2022-12-29T17:47:46;5.07;82.90
71942;DHT22;59997;53.300;-6.260;2022-12-29T17:50:19;5.01;83.12
71942;DHT22;59997;53.300;-6.260;2022-12-29T17:52:55;5.11;83.13
71942;DHT22;59997;53.300;-6.260;2022-12-29T17:55:22;5.24;82.68
71942;DHT22;59997;53.300;-6.260;2022-12-29T17:57:48;5.19;82.68
71942;DHT22;59997;53.300;-6.260;2022-12-29T18:00:19;5.15;82.89
71942;DHT22;59997;53.300;-6.260;2022-12-29T18:02:45;5.16;83.09
71942;DHT22;59997;53.300;-6.260;2022-12-29T18:07:49;5.16;83.05
71942;DHT22;59997;53.300;-6.260;2022-12-29T18:10:15;5.14;83.28
71942;DHT22;59997;53.300;-6.260;2022-12-29T18:12:43;5.18;83.19
71942;DHT22;59997;53.300;-6.260;2022-12-29T18:15:22;5.26;83.05
71942;DHT22;59997;53.300;-6.260;2022-12-29T18:17:48;5.24;83.08
71942;DHT22;59997;53.300;-6.260;2022-12-29T18:20:14;5.18;82.97
71942;DHT22;59997;53.300;-6.260;2022-12-29T18:22:39;5.25;82.85
71942;DHT22;59997;53.300;-6.260;2022-12-29T18:28:09;5.38;82.31
71942;DHT22;59997;53.300;-6.260;2022-12-29T18:30:35;5.28;82.33
71942;DHT22;59997;53.300;-6.260;2022-12-29T18:33:01;5.35;82.27